sensor_id;sensor_type;location;lat;lon;timestamp;P1;durP1;ratioP1;P2;durP2;ratioP2
18905;SDS011;9585;51.018;4.282;2024-03-08T00:01:44;24.60;;;13.70;;
18905;SDS011;9585;51.018;4.282;2024-03-08T00:04:11;21.13;;;13.97;;
18905;SDS011;9585;51.018;4.282;2024-03-08T00:06:40;19.97;;;13.87;;
18905;SDS011;9585;51.018;4.282;2024-03-08T00:09:11;21.20;;;14.87;;
18905;SDS011;9585;51.018;4.282;2024-03-08T00:11:41;23.33;;;14.33;;
18905;SDS011;9585;51.018;4.282;2024-03-08T00:14:27;24.83;;;15.93;;
18905;SDS011;9585;51.018;4.282;2024-03-08T00:17:04;26.57;;;15.77;;
18905;SDS011;9585;51.018;4.282;2024-03-08T00:19:32;24.50;;;15.47;;
18905;SDS011;9585;51.018;4.282;2024-03-08T00:22:00;27.23;;;16.03;;
18905;SDS011;9585;51.018;4.282;2024-03-08T00:24:27;24.47;;;16.03;;
18905;SDS011;9585;51.018;4.282;2024-03-08T00:26:57;27.33;;;17.00;;
18905;SDS011;9585;51.018;4.282;2024-03-08T00:29:25;25.20;;;16.53;;
18905;SDS011;9585;51.018;4.282;2024-03-08T00:31:53;25.43;;;16.53;;
18905;SDS011;9585;51.018;4.282;2024-03-08T00:34:21;25.37;;;15.93;;
18905;SDS011;9585;51.018;4.282;2024-03-08T00:36:49;23.30;;;15.70;;
18905;SDS011;9585;51.018;4.282;2024-03-08T00:39:17;26.03;;;16.80;;
18905;SDS011;9585;51.018;4.282;2024-03-08T00:41:45;27.13;;;17.20;;
18905;SDS011;9585;51.018;4.282;2024-03-08T00:47:25;28.50;;;17.47;;
18905;SDS011;9585;51.018;4.282;2024-03-08T00:49:53;27.07;;;17.60;;
18905;SDS011;9585;51.018;4.282;2024-03-08T00:52:22;28.60;;;17.37;;
18905;SDS011;9585;51.018;4.282;2024-03-08T00:54:50;31.20;;;17.93;;
18905;SDS011;9585;51.018;4.282;2024-03-08T00:57:18;31.60;;;17.50;;
18905;SDS011;9585;51.018;4.282;2024-03-08T00:59:46;28.73;;;16.87;;
18905;SDS011;9585;51.018;4.282;2024-03-08T01:02:14;30.93;;;17.80;;
18905;SDS011;9585;51.018;4.282;2024-03-08T01:04:46;29.20;;;17.87;;
18905;SDS011;9585;51.018;4.282;2024-03-08T01:07:14;26.33;;;16.83;;
18905;SDS011;9585;51.018;4.282;2024-03-08T01:09:42;27.27;;;17.67;;
18905;SDS011;9585;51.018;4.282;2024-03-08T01:12:09;28.77;;;17.63;;
18905;SDS011;9585;51.018;4.282;2024-03-08T01:14:37;30.50;;;18.37;;
18905;SDS011;9585;51.018;4.282;2024-03-08T01:17:05;27.10;;;17.93;;
18905;SDS011;9585;51.018;4.282;2024-03-08T01:19:34;26.47;;;17.30;;
18905;SDS011;9585;51.018;4.282;2024-03-08T01:22:11;30.63;;;17.53;;
18905;SDS011;9585;51.018;4.282;2024-03-08T01:24:39;26.90;;;17.23;;
18905;SDS011;9585;51.018;4.282;2024-03-08T01:27:07;29.90;;;17.90;;
18905;SDS011;9585;51.018;4.282;2024-03-08T01:29:37;26.27;;;16.93;;
18905;SDS011;9585;51.018;4.282;2024-03-08T01:32:05;27.07;;;17.33;;
18905;SDS011;9585;51.018;4.282;2024-03-08T01:34:33;31.37;;;18.93;;
18905;SDS011;9585;51.018;4.282;2024-03-08T01:37:01;27.57;;;18.00;;
18905;SDS011;9585;51.018;4.282;2024-03-08T01:39:30;27.17;;;17.43;;
18905;SDS011;9585;51.018;4.282;2024-03-08T01:41:59;27.53;;;17.20;;
18905;SDS011;9585;51.018;4.282;2024-03-08T01:44:27;29.57;;;18.13;;
18905;SDS011;9585;51.018;4.282;2024-03-08T01:47:14;29.27;;;18.13;;
18905;SDS011;9585;51.018;4.282;2024-03-08T01:50:04;25.13;;;17.10;;
18905;SDS011;9585;51.018;4.282;2024-03-08T01:52:34;27.63;;;18.17;;
18905;SDS011;9585;51.018;4.282;2024-03-08T01:55:04;25.40;;;17.30;;
18905;SDS011;9585;51.018;4.282;2024-03-08T01:57:33;27.90;;;18.67;;
18905;SDS011;9585;51.018;4.282;2024-03-08T02:00:03;28.40;;;17.43;;
18905;SDS011;9585;51.018;4.282;2024-03-08T02:02:35;25.83;;;18.00;;
18905;SDS011;9585;51.018;4.282;2024-03-08T02:05:04;26.47;;;17.33;;
18905;SDS011;9585;51.018;4.282;2024-03-08T02:07:34;28.43;;;18.47;;
18905;SDS011;9585;51.018;4.282;2024-03-08T02:10:01;27.83;;;17.10;;
18905;SDS011;9585;51.018;4.282;2024-03-08T02:12:32;27.07;;;17.47;;
18905;SDS011;9585;51.018;4.282;2024-03-08T02:14:59;28.87;;;18.37;;
18905;SDS011;9585;51.018;4.282;2024-03-08T02:17:47;24.40;;;16.97;;
18905;SDS011;9585;51.018;4.282;2024-03-08T02:20:41;29.20;;;18.03;;
18905;SDS011;9585;51.018;4.282;2024-03-08T02:23:09;27.37;;;17.50;;
18905;SDS011;9585;51.018;4.282;2024-03-08T02:25:36;25.27;;;18.33;;
18905;SDS011;9585;51.018;4.282;2024-03-08T02:28:04;27.00;;;18.00;;
18905;SDS011;9585;51.018;4.282;2024-03-08T02:34:18;24.30;;;16.67;;
18905;SDS011;9585;51.018;4.282;2024-03-08T02:36:46;27.00;;;17.48;;
18905;SDS011;9585;51.018;4.282;2024-03-08T02:39:14;26.75;;;17.70;;
18905;SDS011;9585;51.018;4.282;2024-03-08T02:41:41;25.93;;;17.90;;
18905;SDS011;9585;51.018;4.282;2024-03-08T02:44:09;23.93;;;17.20;;
18905;SDS011;9585;51.018;4.282;2024-03-08T02:46:37;27.20;;;17.07;;
18905;SDS011;9585;51.018;4.282;2024-03-08T02:49:05;24.10;;;17.20;;
18905;SDS011;9585;51.018;4.282;2024-03-08T02:51:34;23.58;;;16.88;;
18905;SDS011;9585;51.018;4.282;2024-03-08T02:54:02;26.37;;;18.50;;
18905;SDS011;9585;51.018;4.282;2024-03-08T02:56:30;24.93;;;17.40;;
18905;SDS011;9585;51.018;4.282;2024-03-08T02:59:00;26.37;;;17.83;;
18905;SDS011;9585;51.018;4.282;2024-03-08T03:01:28;24.83;;;17.90;;
18905;SDS011;9585;51.018;4.282;2024-03-08T03:03:57;25.42;;;17.88;;
18905;SDS011;9585;51.018;4.282;2024-03-08T03:06:25;26.85;;;18.23;;
18905;SDS011;9585;51.018;4.282;2024-03-08T03:08:54;24.63;;;18.00;;
18905;SDS011;9585;51.018;4.282;2024-03-08T03:11:22;25.43;;;18.00;;
18905;SDS011;9585;51.018;4.282;2024-03-08T03:13:50;25.33;;;17.83;;
18905;SDS011;9585;51.018;4.282;2024-03-08T03:16:18;24.13;;;17.40;;
18905;SDS011;9585;51.018;4.282;2024-03-08T03:18:46;25.63;;;17.43;;
18905;SDS011;9585;51.018;4.282;2024-03-08T03:21:14;24.20;;;17.87;;
18905;SDS011;9585;51.018;4.282;2024-03-08T03:23:42;25.87;;;17.93;;
18905;SDS011;9585;51.018;4.282;2024-03-08T03:26:11;25.27;;;17.80;;
18905;SDS011;9585;51.018;4.282;2024-03-08T03:28:42;26.17;;;18.60;;
18905;SDS011;9585;51.018;4.282;2024-03-08T03:31:10;26.00;;;17.53;;
18905;SDS011;9585;51.018;4.282;2024-03-08T03:33:56;24.13;;;18.05;;
18905;SDS011;9585;51.018;4.282;2024-03-08T03:37:06;25.40;;;18.27;;
18905;SDS011;9585;51.018;4.282;2024-03-08T03:39:34;22.40;;;17.43;;
18905;SDS011;9585;51.018;4.282;2024-03-08T03:42:12;24.33;;;17.60;;
18905;SDS011;9585;51.018;4.282;2024-03-08T03:44:40;26.80;;;18.80;;
18905;SDS011;9585;51.018;4.282;2024-03-08T03:47:08;25.03;;;19.00;;
18905;SDS011;9585;51.018;4.282;2024-03-08T03:49:36;27.40;;;19.10;;
18905;SDS011;9585;51.018;4.282;2024-03-08T03:52:04;25.80;;;18.30;;
18905;SDS011;9585;51.018;4.282;2024-03-08T03:54:33;23.87;;;17.87;;
18905;SDS011;9585;51.018;4.282;2024-03-08T03:57:00;26.30;;;18.67;;
18905;SDS011;9585;51.018;4.282;2024-03-08T03:59:30;25.00;;;18.33;;
18905;SDS011;9585;51.018;4.282;2024-03-08T04:01:57;27.30;;;19.50;;
18905;SDS011;9585;51.018;4.282;2024-03-08T04:04:25;24.80;;;18.30;;
18905;SDS011;9585;51.018;4.282;2024-03-08T04:06:54;24.73;;;18.00;;
18905;SDS011;9585;51.018;4.282;2024-03-08T04:09:23;28.17;;;18.33;;
18905;SDS011;9585;51.018;4.282;2024-03-08T04:11:51;24.60;;;18.30;;
18905;SDS011;9585;51.018;4.282;2024-03-08T04:14:21;26.77;;;18.90;;
18905;SDS011;9585;51.018;4.282;2024-03-08T04:16:51;24.30;;;17.93;;
18905;SDS011;9585;51.018;4.282;2024-03-08T04:19:19;25.73;;;18.10;;
18905;SDS011;9585;51.018;4.282;2024-03-08T04:21:47;27.10;;;18.43;;
18905;SDS011;9585;51.018;4.282;2024-03-08T04:24:15;25.20;;;18.50;;
18905;SDS011;9585;51.018;4.282;2024-03-08T04:26:43;26.40;;;19.33;;
18905;SDS011;9585;51.018;4.282;2024-03-08T04:29:12;25.50;;;18.17;;
18905;SDS011;9585;51.018;4.282;2024-03-08T04:31:40;29.13;;;19.47;;
18905;SDS011;9585;51.018;4.282;2024-03-08T04:34:10;25.03;;;18.57;;
18905;SDS011;9585;51.018;4.282;2024-03-08T04:36:38;25.47;;;18.57;;
18905;SDS011;9585;51.018;4.282;2024-03-08T04:39:06;26.20;;;19.10;;
18905;SDS011;9585;51.018;4.282;2024-03-08T04:41:38;26.40;;;18.83;;
18905;SDS011;9585;51.018;4.282;2024-03-08T04:44:06;25.90;;;18.67;;
18905;SDS011;9585;51.018;4.282;2024-03-08T04:46:34;26.53;;;19.17;;
18905;SDS011;9585;51.018;4.282;2024-03-08T04:49:02;26.43;;;18.97;;
18905;SDS011;9585;51.018;4.282;2024-03-08T04:51:31;24.87;;;18.43;;
18905;SDS011;9585;51.018;4.282;2024-03-08T04:54:00;25.63;;;18.40;;
18905;SDS011;9585;51.018;4.282;2024-03-08T04:56:28;26.47;;;18.23;;
18905;SDS011;9585;51.018;4.282;2024-03-08T04:58:56;24.13;;;18.47;;
18905;SDS011;9585;51.018;4.282;2024-03-08T05:01:24;26.13;;;18.50;;
18905;SDS011;9585;51.018;4.282;2024-03-08T05:03:52;25.43;;;18.83;;
18905;SDS011;9585;51.018;4.282;2024-03-08T05:06:20;25.77;;;18.47;;
18905;SDS011;9585;51.018;4.282;2024-03-08T05:08:50;27.30;;;19.13;;
18905;SDS011;9585;51.018;4.282;2024-03-08T05:11:18;24.27;;;17.47;;
18905;SDS011;9585;51.018;4.282;2024-03-08T05:13:46;24.17;;;18.43;;
18905;SDS011;9585;51.018;4.282;2024-03-08T05:16:13;27.33;;;18.57;;
18905;SDS011;9585;51.018;4.282;2024-03-08T05:18:42;26.70;;;18.07;;
18905;SDS011;9585;51.018;4.282;2024-03-08T05:21:12;23.70;;;17.77;;
18905;SDS011;9585;51.018;4.282;2024-03-08T05:23:42;24.63;;;18.23;;
18905;SDS011;9585;51.018;4.282;2024-03-08T05:26:12;24.83;;;18.27;;
18905;SDS011;9585;51.018;4.282;2024-03-08T05:28:40;25.57;;;18.63;;
18905;SDS011;9585;51.018;4.282;2024-03-08T05:31:08;22.97;;;17.57;;
18905;SDS011;9585;51.018;4.282;2024-03-08T05:33:36;26.37;;;18.60;;
18905;SDS011;9585;51.018;4.282;2024-03-08T05:36:04;28.33;;;19.23;;
18905;SDS011;9585;51.018;4.282;2024-03-08T05:38:35;26.47;;;18.20;;
18905;SDS011;9585;51.018;4.282;2024-03-08T05:41:03;24.30;;;17.93;;
18905;SDS011;9585;51.018;4.282;2024-03-08T05:43:34;25.73;;;17.67;;
18905;SDS011;9585;51.018;4.282;2024-03-08T05:46:02;25.17;;;18.50;;
18905;SDS011;9585;51.018;4.282;2024-03-08T05:48:30;25.47;;;18.00;;
18905;SDS011;9585;51.018;4.282;2024-03-08T05:50:59;27.60;;;18.50;;
18905;SDS011;9585;51.018;4.282;2024-03-08T05:53:27;24.80;;;17.57;;
18905;SDS011;9585;51.018;4.282;2024-03-08T05:55:57;26.63;;;18.43;;
18905;SDS011;9585;51.018;4.282;2024-03-08T05:58:27;26.10;;;17.60;;
18905;SDS011;9585;51.018;4.282;2024-03-08T06:00:58;24.37;;;18.43;;
18905;SDS011;9585;51.018;4.282;2024-03-08T06:03:26;26.53;;;18.80;;
18905;SDS011;9585;51.018;4.282;2024-03-08T06:05:55;28.47;;;18.27;;
18905;SDS011;9585;51.018;4.282;2024-03-08T06:08:23;25.70;;;18.83;;
18905;SDS011;9585;51.018;4.282;2024-03-08T06:10:55;26.03;;;17.63;;
18905;SDS011;9585;51.018;4.282;2024-03-08T06:13:24;25.13;;;17.53;;
18905;SDS011;9585;51.018;4.282;2024-03-08T06:15:52;24.13;;;17.57;;
18905;SDS011;9585;51.018;4.282;2024-03-08T06:18:21;27.63;;;18.27;;
18905;SDS011;9585;51.018;4.282;2024-03-08T06:20:49;25.67;;;18.27;;
18905;SDS011;9585;51.018;4.282;2024-03-08T06:23:17;26.53;;;18.50;;
18905;SDS011;9585;51.018;4.282;2024-03-08T06:25:47;29.20;;;19.40;;
18905;SDS011;9585;51.018;4.282;2024-03-08T06:28:16;27.17;;;19.73;;
18905;SDS011;9585;51.018;4.282;2024-03-08T06:30:46;28.00;;;18.30;;
18905;SDS011;9585;51.018;4.282;2024-03-08T06:33:18;28.93;;;18.97;;
18905;SDS011;9585;51.018;4.282;2024-03-08T06:35:48;25.23;;;18.47;;
18905;SDS011;9585;51.018;4.282;2024-03-08T06:38:16;25.37;;;17.43;;
18905;SDS011;9585;51.018;4.282;2024-03-08T06:40:44;27.40;;;18.57;;
18905;SDS011;9585;51.018;4.282;2024-03-08T06:43:14;26.10;;;18.53;;
18905;SDS011;9585;51.018;4.282;2024-03-08T06:45:43;22.07;;;17.20;;
18905;SDS011;9585;51.018;4.282;2024-03-08T06:48:14;25.07;;;18.10;;
18905;SDS011;9585;51.018;4.282;2024-03-08T06:50:42;24.17;;;17.53;;
18905;SDS011;9585;51.018;4.282;2024-03-08T06:53:12;22.57;;;16.83;;
18905;SDS011;9585;51.018;4.282;2024-03-08T06:55:41;22.02;;;16.27;;
18905;SDS011;9585;51.018;4.282;2024-03-08T06:58:11;23.65;;;17.25;;
18905;SDS011;9585;51.018;4.282;2024-03-08T07:00:39;23.95;;;16.08;;
18905;SDS011;9585;51.018;4.282;2024-03-08T07:03:08;22.70;;;16.67;;
18905;SDS011;9585;51.018;4.282;2024-03-08T07:05:43;21.08;;;16.35;;
18905;SDS011;9585;51.018;4.282;2024-03-08T07:08:12;24.60;;;16.77;;
18905;SDS011;9585;51.018;4.282;2024-03-08T07:10:41;20.85;;;15.93;;
18905;SDS011;9585;51.018;4.282;2024-03-08T07:13:13;21.13;;;15.70;;
18905;SDS011;9585;51.018;4.282;2024-03-08T07:15:42;22.42;;;15.93;;
18905;SDS011;9585;51.018;4.282;2024-03-08T07:18:11;20.77;;;15.70;;
18905;SDS011;9585;51.018;4.282;2024-03-08T07:20:40;20.90;;;14.75;;
18905;SDS011;9585;51.018;4.282;2024-03-08T07:23:08;19.60;;;15.35;;
18905;SDS011;9585;51.018;4.282;2024-03-08T07:25:58;21.30;;;15.00;;
18905;SDS011;9585;51.018;4.282;2024-03-08T07:28:26;18.92;;;13.93;;
18905;SDS011;9585;51.018;4.282;2024-03-08T07:30:55;19.65;;;15.60;;
18905;SDS011;9585;51.018;4.282;2024-03-08T07:33:38;22.10;;;16.23;;
18905;SDS011;9585;51.018;4.282;2024-03-08T07:36:06;20.98;;;15.75;;
18905;SDS011;9585;51.018;4.282;2024-03-08T07:38:34;19.73;;;15.63;;
18905;SDS011;9585;51.018;4.282;2024-03-08T07:41:03;21.02;;;15.32;;
18905;SDS011;9585;51.018;4.282;2024-03-08T07:43:31;20.38;;;15.10;;
18905;SDS011;9585;51.018;4.282;2024-03-08T07:45:59;20.63;;;15.30;;
18905;SDS011;9585;51.018;4.282;2024-03-08T07:48:28;20.58;;;15.00;;
18905;SDS011;9585;51.018;4.282;2024-03-08T07:50:56;20.25;;;15.43;;
18905;SDS011;9585;51.018;4.282;2024-03-08T07:53:24;19.55;;;15.18;;
18905;SDS011;9585;51.018;4.282;2024-03-08T07:55:52;22.27;;;14.23;;
18905;SDS011;9585;51.018;4.282;2024-03-08T07:58:21;17.25;;;14.60;;
18905;SDS011;9585;51.018;4.282;2024-03-08T08:00:53;22.88;;;15.40;;
18905;SDS011;9585;51.018;4.282;2024-03-08T08:03:26;20.17;;;14.80;;
18905;SDS011;9585;51.018;4.282;2024-03-08T08:05:54;19.92;;;14.43;;
18905;SDS011;9585;51.018;4.282;2024-03-08T08:08:23;19.40;;;14.60;;
18905;SDS011;9585;51.018;4.282;2024-03-08T08:10:51;22.08;;;15.13;;
18905;SDS011;9585;51.018;4.282;2024-03-08T08:13:21;20.33;;;14.57;;
18905;SDS011;9585;51.018;4.282;2024-03-08T08:15:49;18.80;;;14.10;;
18905;SDS011;9585;51.018;4.282;2024-03-08T08:18:17;19.27;;;14.27;;
18905;SDS011;9585;51.018;4.282;2024-03-08T08:20:50;18.65;;;14.05;;
18905;SDS011;9585;51.018;4.282;2024-03-08T08:23:19;18.38;;;13.77;;
18905;SDS011;9585;51.018;4.282;2024-03-08T08:25:47;19.73;;;13.30;;
18905;SDS011;9585;51.018;4.282;2024-03-08T08:28:15;17.83;;;13.80;;
18905;SDS011;9585;51.018;4.282;2024-03-08T08:30:45;19.27;;;14.50;;
18905;SDS011;9585;51.018;4.282;2024-03-08T08:33:14;21.67;;;14.40;;
18905;SDS011;9585;51.018;4.282;2024-03-08T08:35:45;18.25;;;14.48;;
18905;SDS011;9585;51.018;4.282;2024-03-08T08:38:14;18.77;;;14.95;;
18905;SDS011;9585;51.018;4.282;2024-03-08T08:40:43;19.05;;;13.90;;
18905;SDS011;9585;51.018;4.282;2024-03-08T08:43:12;20.30;;;14.32;;
18905;SDS011;9585;51.018;4.282;2024-03-08T08:45:40;21.25;;;15.07;;
18905;SDS011;9585;51.018;4.282;2024-03-08T08:48:10;21.27;;;14.82;;
18905;SDS011;9585;51.018;4.282;2024-03-08T08:50:38;19.85;;;15.00;;
18905;SDS011;9585;51.018;4.282;2024-03-08T08:53:07;21.98;;;14.88;;
18905;SDS011;9585;51.018;4.282;2024-03-08T08:55:36;23.38;;;15.80;;
18905;SDS011;9585;51.018;4.282;2024-03-08T08:58:05;20.92;;;14.52;;
18905;SDS011;9585;51.018;4.282;2024-03-08T09:00:33;21.80;;;15.50;;
18905;SDS011;9585;51.018;4.282;2024-03-08T09:03:01;21.17;;;14.95;;
18905;SDS011;9585;51.018;4.282;2024-03-08T09:05:38;19.10;;;14.45;;
18905;SDS011;9585;51.018;4.282;2024-03-08T09:08:09;20.40;;;15.05;;
18905;SDS011;9585;51.018;4.282;2024-03-08T09:10:37;23.65;;;15.10;;
18905;SDS011;9585;51.018;4.282;2024-03-08T09:13:05;20.60;;;14.05;;
18905;SDS011;9585;51.018;4.282;2024-03-08T09:15:35;19.60;;;14.25;;
18905;SDS011;9585;51.018;4.282;2024-03-08T09:18:05;20.27;;;14.77;;
18905;SDS011;9585;51.018;4.282;2024-03-08T09:20:36;23.10;;;15.70;;
18905;SDS011;9585;51.018;4.282;2024-03-08T09:23:06;21.50;;;14.23;;
18905;SDS011;9585;51.018;4.282;2024-03-08T09:25:34;19.02;;;13.68;;
18905;SDS011;9585;51.018;4.282;2024-03-08T09:28:03;17.75;;;14.07;;
18905;SDS011;9585;51.018;4.282;2024-03-08T09:30:31;19.10;;;14.05;;
18905;SDS011;9585;51.018;4.282;2024-03-08T09:33:00;21.40;;;14.63;;
18905;SDS011;9585;51.018;4.282;2024-03-08T09:35:28;19.48;;;13.68;;
18905;SDS011;9585;51.018;4.282;2024-03-08T09:37:58;19.55;;;13.52;;
18905;SDS011;9585;51.018;4.282;2024-03-08T09:40:26;16.67;;;12.88;;
18905;SDS011;9585;51.018;4.282;2024-03-08T09:42:54;18.02;;;12.90;;
18905;SDS011;9585;51.018;4.282;2024-03-08T09:45:22;17.00;;;12.73;;
18905;SDS011;9585;51.018;4.282;2024-03-08T09:47:52;21.60;;;13.23;;
18905;SDS011;9585;51.018;4.282;2024-03-08T09:50:21;18.80;;;13.27;;
18905;SDS011;9585;51.018;4.282;2024-03-08T09:52:49;19.50;;;13.10;;
18905;SDS011;9585;51.018;4.282;2024-03-08T09:55:19;17.67;;;12.65;;
18905;SDS011;9585;51.018;4.282;2024-03-08T09:57:48;17.60;;;13.13;;
18905;SDS011;9585;51.018;4.282;2024-03-08T10:00:37;16.02;;;11.57;;
18905;SDS011;9585;51.018;4.282;2024-03-08T10:03:05;17.17;;;12.52;;
18905;SDS011;9585;51.018;4.282;2024-03-08T10:05:34;17.88;;;12.60;;
18905;SDS011;9585;51.018;4.282;2024-03-08T10:08:05;16.70;;;11.82;;
18905;SDS011;9585;51.018;4.282;2024-03-08T10:10:36;18.38;;;12.70;;
18905;SDS011;9585;51.018;4.282;2024-03-08T10:13:05;15.55;;;12.30;;
18905;SDS011;9585;51.018;4.282;2024-03-08T10:15:34;17.08;;;12.55;;
18905;SDS011;9585;51.018;4.282;2024-03-08T10:18:02;15.10;;;12.20;;
18905;SDS011;9585;51.018;4.282;2024-03-08T10:20:30;19.30;;;12.82;;
18905;SDS011;9585;51.018;4.282;2024-03-08T10:22:59;16.52;;;11.93;;
18905;SDS011;9585;51.018;4.282;2024-03-08T10:25:29;15.40;;;12.32;;
18905;SDS011;9585;51.018;4.282;2024-03-08T10:27:58;17.85;;;11.90;;
18905;SDS011;9585;51.018;4.282;2024-03-08T10:30:26;16.63;;;12.07;;
18905;SDS011;9585;51.018;4.282;2024-03-08T10:32:55;16.92;;;12.15;;
18905;SDS011;9585;51.018;4.282;2024-03-08T10:35:23;17.67;;;12.13;;
18905;SDS011;9585;51.018;4.282;2024-03-08T10:37:52;16.88;;;12.02;;
18905;SDS011;9585;51.018;4.282;2024-03-08T10:40:25;16.33;;;11.73;;
18905;SDS011;9585;51.018;4.282;2024-03-08T10:42:55;16.55;;;11.98;;
18905;SDS011;9585;51.018;4.282;2024-03-08T10:45:31;16.17;;;12.07;;
18905;SDS011;9585;51.018;4.282;2024-03-08T10:48:04;17.85;;;11.63;;
18905;SDS011;9585;51.018;4.282;2024-03-08T10:50:48;14.80;;;10.80;;
18905;SDS011;9585;51.018;4.282;2024-03-08T10:53:18;14.38;;;11.23;;
18905;SDS011;9585;51.018;4.282;2024-03-08T10:55:51;14.75;;;10.82;;
18905;SDS011;9585;51.018;4.282;2024-03-08T10:58:25;15.57;;;11.88;;
18905;SDS011;9585;51.018;4.282;2024-03-08T11:00:54;15.57;;;11.38;;
18905;SDS011;9585;51.018;4.282;2024-03-08T11:06:15;15.88;;;11.32;;
18905;SDS011;9585;51.018;4.282;2024-03-08T11:08:48;16.58;;;11.40;;
18905;SDS011;9585;51.018;4.282;2024-03-08T11:11:26;15.82;;;11.38;;
18905;SDS011;9585;51.018;4.282;2024-03-08T11:14:00;13.25;;;10.73;;
18905;SDS011;9585;51.018;4.282;2024-03-08T11:16:43;15.18;;;10.88;;
18905;SDS011;9585;51.018;4.282;2024-03-08T11:19:24;14.65;;;10.95;;
18905;SDS011;9585;51.018;4.282;2024-03-08T11:21:58;14.98;;;11.32;;
18905;SDS011;9585;51.018;4.282;2024-03-08T11:24:27;14.98;;;11.32;;
18905;SDS011;9585;51.018;4.282;2024-03-08T11:27:07;15.13;;;11.50;;
18905;SDS011;9585;51.018;4.282;2024-03-08T11:29:39;15.75;;;11.60;;
18905;SDS011;9585;51.018;4.282;2024-03-08T11:32:08;14.55;;;10.85;;
18905;SDS011;9585;51.018;4.282;2024-03-08T11:34:37;17.58;;;11.50;;
18905;SDS011;9585;51.018;4.282;2024-03-08T11:37:11;14.75;;;11.10;;
18905;SDS011;9585;51.018;4.282;2024-03-08T11:39:40;13.65;;;10.68;;
18905;SDS011;9585;51.018;4.282;2024-03-08T11:42:14;14.65;;;11.10;;
18905;SDS011;9585;51.018;4.282;2024-03-08T11:44:44;14.38;;;11.60;;
18905;SDS011;9585;51.018;4.282;2024-03-08T11:47:13;15.77;;;11.40;;
18905;SDS011;9585;51.018;4.282;2024-03-08T11:49:42;14.93;;;11.55;;
18905;SDS011;9585;51.018;4.282;2024-03-08T11:52:13;17.55;;;11.05;;
18905;SDS011;9585;51.018;4.282;2024-03-08T11:54:41;16.08;;;11.98;;
18905;SDS011;9585;51.018;4.282;2024-03-08T11:57:16;15.52;;;11.75;;
18905;SDS011;9585;51.018;4.282;2024-03-08T11:59:51;15.30;;;11.38;;
18905;SDS011;9585;51.018;4.282;2024-03-08T12:02:19;15.48;;;11.75;;
18905;SDS011;9585;51.018;4.282;2024-03-08T12:04:54;13.05;;;11.07;;
18905;SDS011;9585;51.018;4.282;2024-03-08T12:07:25;13.63;;;11.35;;
18905;SDS011;9585;51.018;4.282;2024-03-08T12:12:47;15.63;;;12.13;;
18905;SDS011;9585;51.018;4.282;2024-03-08T12:15:18;14.80;;;10.55;;
18905;SDS011;9585;51.018;4.282;2024-03-08T12:17:48;14.00;;;11.27;;
18905;SDS011;9585;51.018;4.282;2024-03-08T12:20:17;15.00;;;11.43;;
18905;SDS011;9585;51.018;4.282;2024-03-08T12:22:50;16.00;;;11.05;;
18905;SDS011;9585;51.018;4.282;2024-03-08T12:25:22;16.13;;;11.38;;
18905;SDS011;9585;51.018;4.282;2024-03-08T12:28:06;15.65;;;11.63;;
18905;SDS011;9585;51.018;4.282;2024-03-08T12:30:51;14.02;;;11.40;;
18905;SDS011;9585;51.018;4.282;2024-03-08T12:33:22;14.70;;;11.05;;
18905;SDS011;9585;51.018;4.282;2024-03-08T12:35:51;14.07;;;11.25;;
18905;SDS011;9585;51.018;4.282;2024-03-08T12:38:20;12.52;;;10.90;;
18905;SDS011;9585;51.018;4.282;2024-03-08T12:40:51;15.10;;;11.63;;
18905;SDS011;9585;51.018;4.282;2024-03-08T12:43:24;14.50;;;11.40;;
18905;SDS011;9585;51.018;4.282;2024-03-08T12:45:55;14.52;;;10.93;;
18905;SDS011;9585;51.018;4.282;2024-03-08T12:48:23;15.93;;;12.30;;
18905;SDS011;9585;51.018;4.282;2024-03-08T12:50:51;14.93;;;11.52;;
18905;SDS011;9585;51.018;4.282;2024-03-08T12:53:20;13.25;;;10.90;;
18905;SDS011;9585;51.018;4.282;2024-03-08T12:55:48;15.00;;;11.43;;
18905;SDS011;9585;51.018;4.282;2024-03-08T12:58:17;13.73;;;11.45;;
18905;SDS011;9585;51.018;4.282;2024-03-08T13:00:46;13.52;;;10.70;;
18905;SDS011;9585;51.018;4.282;2024-03-08T13:03:17;14.77;;;11.38;;
18905;SDS011;9585;51.018;4.282;2024-03-08T13:05:46;15.00;;;10.65;;
18905;SDS011;9585;51.018;4.282;2024-03-08T13:08:15;13.90;;;10.88;;
18905;SDS011;9585;51.018;4.282;2024-03-08T13:10:43;14.05;;;10.45;;
18905;SDS011;9585;51.018;4.282;2024-03-08T13:13:12;16.02;;;11.45;;
18905;SDS011;9585;51.018;4.282;2024-03-08T13:15:42;14.70;;;11.23;;
18905;SDS011;9585;51.018;4.282;2024-03-08T13:18:10;13.77;;;11.02;;
18905;SDS011;9585;51.018;4.282;2024-03-08T13:20:40;12.10;;;9.77;;
18905;SDS011;9585;51.018;4.282;2024-03-08T13:23:14;13.85;;;10.65;;
18905;SDS011;9585;51.018;4.282;2024-03-08T13:25:42;14.90;;;11.88;;
18905;SDS011;9585;51.018;4.282;2024-03-08T13:28:13;14.73;;;10.95;;
18905;SDS011;9585;51.018;4.282;2024-03-08T13:30:41;15.90;;;10.75;;
18905;SDS011;9585;51.018;4.282;2024-03-08T13:33:09;13.32;;;10.88;;
18905;SDS011;9585;51.018;4.282;2024-03-08T13:35:42;15.43;;;10.70;;
18905;SDS011;9585;51.018;4.282;2024-03-08T13:38:09;14.30;;;10.85;;
18905;SDS011;9585;51.018;4.282;2024-03-08T13:40:38;14.50;;;10.68;;
18905;SDS011;9585;51.018;4.282;2024-03-08T13:43:06;14.48;;;10.90;;
18905;SDS011;9585;51.018;4.282;2024-03-08T13:45:35;14.93;;;11.40;;
18905;SDS011;9585;51.018;4.282;2024-03-08T13:48:04;16.60;;;10.88;;
18905;SDS011;9585;51.018;4.282;2024-03-08T13:50:38;18.58;;;11.55;;
18905;SDS011;9585;51.018;4.282;2024-03-08T13:53:08;16.55;;;11.50;;
18905;SDS011;9585;51.018;4.282;2024-03-08T13:55:36;13.88;;;11.13;;
18905;SDS011;9585;51.018;4.282;2024-03-08T13:58:04;14.00;;;10.98;;
18905;SDS011;9585;51.018;4.282;2024-03-08T14:00:35;16.85;;;11.50;;
18905;SDS011;9585;51.018;4.282;2024-03-08T14:03:04;14.30;;;10.93;;
18905;SDS011;9585;51.018;4.282;2024-03-08T14:05:32;14.23;;;11.43;;
18905;SDS011;9585;51.018;4.282;2024-03-08T14:08:00;14.43;;;11.52;;
18905;SDS011;9585;51.018;4.282;2024-03-08T14:10:31;14.13;;;11.10;;
18905;SDS011;9585;51.018;4.282;2024-03-08T14:12:59;14.95;;;11.40;;
18905;SDS011;9585;51.018;4.282;2024-03-08T14:15:28;12.52;;;10.50;;
18905;SDS011;9585;51.018;4.282;2024-03-08T14:17:56;14.95;;;10.50;;
18905;SDS011;9585;51.018;4.282;2024-03-08T14:20:24;14.75;;;10.68;;
18905;SDS011;9585;51.018;4.282;2024-03-08T14:22:52;15.55;;;10.75;;
18905;SDS011;9585;51.018;4.282;2024-03-08T14:25:23;13.05;;;10.00;;
18905;SDS011;9585;51.018;4.282;2024-03-08T14:28:00;15.50;;;11.50;;
18905;SDS011;9585;51.018;4.282;2024-03-08T14:30:39;13.25;;;10.40;;
18905;SDS011;9585;51.018;4.282;2024-03-08T14:33:08;15.95;;;11.07;;
18905;SDS011;9585;51.018;4.282;2024-03-08T14:35:37;13.57;;;10.95;;
18905;SDS011;9585;51.018;4.282;2024-03-08T14:38:08;14.23;;;11.45;;
18905;SDS011;9585;51.018;4.282;2024-03-08T14:40:38;16.27;;;10.60;;
18905;SDS011;9585;51.018;4.282;2024-03-08T14:43:08;13.65;;;11.07;;
18905;SDS011;9585;51.018;4.282;2024-03-08T14:45:36;14.55;;;10.63;;
18905;SDS011;9585;51.018;4.282;2024-03-08T14:48:07;14.00;;;10.65;;
18905;SDS011;9585;51.018;4.282;2024-03-08T14:50:37;14.60;;;10.88;;
18905;SDS011;9585;51.018;4.282;2024-03-08T14:53:09;14.23;;;10.45;;
18905;SDS011;9585;51.018;4.282;2024-03-08T14:55:41;13.95;;;10.93;;
18905;SDS011;9585;51.018;4.282;2024-03-08T14:58:13;14.43;;;10.70;;
18905;SDS011;9585;51.018;4.282;2024-03-08T15:00:41;14.00;;;11.10;;
18905;SDS011;9585;51.018;4.282;2024-03-08T15:03:09;13.77;;;11.07;;